sensor_id;sensor_type;location;lat;lon;timestamp;pressure;altitude;pressure_sealevel;temperature;humidity
80945;BME280;70400;50.934;11.590;2024-01-06T00:00:50;98914.16;;;2.53;92.88
80945;BME280;70400;50.934;11.590;2024-01-06T00:01:41;98914.50;;;2.48;92.83
80945;BME280;70400;50.934;11.590;2024-01-06T00:02:32;98916.16;;;2.49;92.76
80945;BME280;70400;50.934;11.590;2024-01-06T00:03:23;98907.28;;;2.41;92.87
80945;BME280;70400;50.934;11.590;2024-01-06T00:04:14;98909.91;;;2.41;92.90
80945;BME280;70400;50.934;11.590;2024-01-06T00:05:05;98919.59;;;2.38;92.99
80945;BME280;70400;50.934;11.590;2024-01-06T00:05:58;98911.31;;;2.33;93.10
80945;BME280;70400;50.934;11.590;2024-01-06T00:06:50;98911.44;;;2.32;93.58
80945;BME280;70400;50.934;11.590;2024-01-06T00:07:41;98913.44;;;2.28;93.74
80945;BME280;70400;50.934;11.590;2024-01-06T00:08:32;98917.56;;;2.31;93.54
80945;BME280;70400;50.934;11.590;2024-01-06T00:09:23;98909.91;;;2.29;93.48
80945;BME280;70400;50.934;11.590;2024-01-06T00:10:14;98914.75;;;2.23;93.55
80945;BME280;70400;50.934;11.590;2024-01-06T00:11:07;98914.97;;;2.20;93.83
80945;BME280;70400;50.934;11.590;2024-01-06T00:11:58;98919.22;;;2.21;94.16
80945;BME280;70400;50.934;11.590;2024-01-06T00:12:49;98914.63;;;2.35;93.96
80945;BME280;70400;50.934;11.590;2024-01-06T00:13:40;98919.47;;;2.29;93.95
80945;BME280;70400;50.934;11.590;2024-01-06T00:14:31;98919.13;;;2.33;93.84
80945;BME280;70400;50.934;11.590;2024-01-06T00:15:21;98916.50;;;2.33;93.88
80945;BME280;70400;50.934;11.590;2024-01-06T00:16:15;98924.44;;;2.43;93.64
80945;BME280;70400;50.934;11.590;2024-01-06T00:17:06;98923.97;;;2.49;93.65
80945;BME280;70400;50.934;11.590;2024-01-06T00:17:57;98926.09;;;2.44;93.46
80945;BME280;70400;50.934;11.590;2024-01-06T00:18:48;98921.84;;;2.43;93.69
80945;BME280;70400;50.934;11.590;2024-01-06T00:19:40;98916.41;;;2.35;93.79
80945;BME280;70400;50.934;11.590;2024-01-06T00:20:31;98920.78;;;2.34;93.94
80945;BME280;70400;50.934;11.590;2024-01-06T00:21:22;98920.41;;;2.39;93.58
80945;BME280;70400;50.934;11.590;2024-01-06T00:22:13;98927.25;;;2.29;94.13
80945;BME280;70400;50.934;11.590;2024-01-06T00:23:04;98919.13;;;2.33;94.02
80945;BME280;70400;50.934;11.590;2024-01-06T00:23:54;98917.81;;;2.39;93.75
80945;BME280;70400;50.934;11.590;2024-01-06T00:24:46;98925.41;;;2.42;94.10
80945;BME280;70400;50.934;11.590;2024-01-06T00:25:37;98926.47;;;2.39;94.11
80945;BME280;70400;50.934;11.590;2024-01-06T00:26:28;98923.72;;;2.30;93.53
80945;BME280;70400;50.934;11.590;2024-01-06T00:27:19;98927.75;;;2.34;93.83
80945;BME280;70400;50.934;11.590;2024-01-06T00:28:10;98922.53;;;2.34;93.55
80945;BME280;70400;50.934;11.590;2024-01-06T00:29:01;98927.50;;;2.26;93.71
80945;BME280;70400;50.934;11.590;2024-01-06T00:29:52;98931.28;;;2.22;94.31
80945;BME280;70400;50.934;11.590;2024-01-06T00:30:43;98920.75;;;2.23;94.55
80945;BME280;70400;50.934;11.590;2024-01-06T00:31:34;98920.03;;;2.21;94.05
80945;BME280;70400;50.934;11.590;2024-01-06T00:32:25;98923.50;;;2.22;94.05
80945;BME280;70400;50.934;11.590;2024-01-06T00:33:16;98930.00;;;2.27;94.19
80945;BME280;70400;50.934;11.590;2024-01-06T00:34:06;98925.03;;;2.24;94.04
80945;BME280;70400;50.934;11.590;2024-01-06T00:34:57;98927.16;;;2.19;94.09
80945;BME280;70400;50.934;11.590;2024-01-06T00:35:48;98922.78;;;2.20;94.24
80945;BME280;70400;50.934;11.590;2024-01-06T00:36:39;98922.53;;;2.23;94.49
80945;BME280;70400;50.934;11.590;2024-01-06T00:37:30;98921.56;;;2.12;94.17
80945;BME280;70400;50.934;11.590;2024-01-06T00:38:21;98921.56;;;2.12;94.07
80945;BME280;70400;50.934;11.590;2024-01-06T00:39:12;98924.28;;;2.11;94.08
80945;BME280;70400;50.934;11.590;2024-01-06T00:40:03;98923.44;;;1.99;94.46
80945;BME280;70400;50.934;11.590;2024-01-06T00:40:55;98929.56;;;1.87;94.36
80945;BME280;70400;50.934;11.590;2024-01-06T00:41:48;98919.72;;;1.79;94.48
80945;BME280;70400;50.934;11.590;2024-01-06T00:42:38;98927.16;;;1.72;95.11
80945;BME280;70400;50.934;11.590;2024-01-06T00:43:29;98925.25;;;1.63;95.20
80945;BME280;70400;50.934;11.590;2024-01-06T00:44:20;98925.44;;;1.60;95.87
80945;BME280;70400;50.934;11.590;2024-01-06T00:45:11;98920.72;;;1.65;95.71
80945;BME280;70400;50.934;11.590;2024-01-06T00:46:02;98921.34;;;1.69;95.83
80945;BME280;70400;50.934;11.590;2024-01-06T00:46:53;98924.69;;;1.71;96.04
80945;BME280;70400;50.934;11.590;2024-01-06T00:47:44;98923.00;;;1.70;96.11
80945;BME280;70400;50.934;11.590;2024-01-06T00:48:35;98927.16;;;1.72;96.10
80945;BME280;70400;50.934;11.590;2024-01-06T00:49:26;98929.19;;;1.80;95.90
80945;BME280;70400;50.934;11.590;2024-01-06T00:50:18;98927.63;;;1.78;95.95
80945;BME280;70400;50.934;11.590;2024-01-06T00:51:10;98926.72;;;1.79;96.07
80945;BME280;70400;50.934;11.590;2024-01-06T00:52:01;98929.47;;;1.88;95.60
80945;BME280;70400;50.934;11.590;2024-01-06T00:52:52;98934.44;;;1.91;95.50
80945;BME280;70400;50.934;11.590;2024-01-06T00:53:43;98919.78;;;2.02;95.41
80945;BME280;70400;50.934;11.590;2024-01-06T00:54:34;98927.25;;;2.06;94.61
80945;BME280;70400;50.934;11.590;2024-01-06T00:55:26;98927.34;;;2.05;94.76
80945;BME280;70400;50.934;11.590;2024-01-06T00:56:17;98926.38;;;1.83;94.11
80945;BME280;70400;50.934;11.590;2024-01-06T00:57:07;98929.06;;;1.82;94.18
80945;BME280;70400;50.934;11.590;2024-01-06T00:57:58;98932.25;;;1.74;94.25
80945;BME280;70400;50.934;11.590;2024-01-06T00:58:49;98927.16;;;1.72;94.64
80945;BME280;70400;50.934;11.590;2024-01-06T00:59:40;98927.38;;;1.69;94.62
80945;BME280;70400;50.934;11.590;2024-01-06T01:00:31;98930.56;;;1.73;94.86
80945;BME280;70400;50.934;11.590;2024-01-06T01:01:22;98928.50;;;1.78;95.14
80945;BME280;70400;50.934;11.590;2024-01-06T01:02:13;98936.16;;;1.80;94.55
80945;BME280;70400;50.934;11.590;2024-01-06T01:03:04;98924.69;;;1.82;94.53
80945;BME280;70400;50.934;11.590;2024-01-06T01:03:55;98935.09;;;1.82;94.85
80945;BME280;70400;50.934;11.590;2024-01-06T01:04:45;98928.97;;;1.83;94.22
80945;BME280;70400;50.934;11.590;2024-01-06T01:05:36;98926.38;;;1.83;94.58
80945;BME280;70400;50.934;11.590;2024-01-06T01:06:27;98942.09;;;1.93;94.85
80945;BME280;70400;50.934;11.590;2024-01-06T01:07:18;98934.69;;;2.00;94.15
80945;BME280;70400;50.934;11.590;2024-01-06T01:08:09;98931.81;;;1.91;94.05
80945;BME280;70400;50.934;11.590;2024-01-06T01:09:00;98931.59;;;1.94;93.80
80945;BME280;70400;50.934;11.590;2024-01-06T01:09:51;98932.31;;;1.97;94.17
80945;BME280;70400;50.934;11.590;2024-01-06T01:10:42;98930.63;;;1.95;94.13
80945;BME280;70400;50.934;11.590;2024-01-06T01:11:34;98935.25;;;1.92;94.06
80945;BME280;70400;50.934;11.590;2024-01-06T01:12:25;98933.22;;;1.95;93.77
80945;BME280;70400;50.934;11.590;2024-01-06T01:13:16;98921.91;;;1.97;93.55
80945;BME280;70400;50.934;11.590;2024-01-06T01:14:07;98934.44;;;1.91;93.57
80945;BME280;70400;50.934;11.590;2024-01-06T01:14:57;98932.88;;;1.89;93.48
80945;BME280;70400;50.934;11.590;2024-01-06T01:15:49;98924.13;;;1.90;93.39
80945;BME280;70400;50.934;11.590;2024-01-06T01:16:40;98933.44;;;1.81;93.72
80945;BME280;70400;50.934;11.590;2024-01-06T01:17:31;98932.63;;;1.81;93.58
80945;BME280;70400;50.934;11.590;2024-01-06T01:18:24;98938.88;;;1.78;93.66
80945;BME280;70400;50.934;11.590;2024-01-06T01:19:15;98939.22;;;1.73;93.82
80945;BME280;70400;50.934;11.590;2024-01-06T01:20:06;98935.66;;;1.74;93.91
80945;BME280;70400;50.934;11.590;2024-01-06T01:20:57;98943.34;;;1.76;93.93
80945;BME280;70400;50.934;11.590;2024-01-06T01:21:48;98938.50;;;1.71;94.31
80945;BME280;70400;50.934;11.590;2024-01-06T01:22:39;98938.34;;;1.62;93.86
80945;BME280;70400;50.934;11.590;2024-01-06T01:23:30;98940.44;;;1.57;94.38
80945;BME280;70400;50.934;11.590;2024-01-06T01:24:22;98947.28;;;1.58;94.33
80945;BME280;70400;50.934;11.590;2024-01-06T01:25:13;98945.19;;;1.63;94.48
80945;BME280;70400;50.934;11.590;2024-01-06T01:26:04;98941.41;;;1.56;94.63
80945;BME280;70400;50.934;11.590;2024-01-06T01:26:55;98946.69;;;1.54;94.30
80945;BME280;70400;50.934;11.590;2024-01-06T01:27:46;98949.28;;;1.54;94.73
80945;BME280;70400;50.934;11.590;2024-01-06T01:28:37;98954.25;;;1.57;94.66
80945;BME280;70400;50.934;11.590;2024-01-06T01:29:28;98947.91;;;1.61;94.75
80945;BME280;70400;50.934;11.590;2024-01-06T01:30:18;98953.34;;;1.58;94.75
80945;BME280;70400;50.934;11.590;2024-01-06T01:31:09;98954.38;;;1.56;94.48
80945;BME280;70400;50.934;11.590;2024-01-06T01:32:01;98958.72;;;1.55;95.01
80945;BME280;70400;50.934;11.590;2024-01-06T01:32:51;98960.06;;;1.61;94.43
80945;BME280;70400;50.934;11.590;2024-01-06T01:33:42;98965.28;;;1.61;94.68
80945;BME280;70400;50.934;11.590;2024-01-06T01:34:33;98961.22;;;1.57;94.63
80945;BME280;70400;50.934;11.590;2024-01-06T01:35:24;98974.03;;;1.47;94.73
80945;BME280;70400;50.934;11.590;2024-01-06T01:36:15;98966.75;;;1.52;94.74
80945;BME280;70400;50.934;11.590;2024-01-06T01:37:08;98962.88;;;1.58;94.41
80945;BME280;70400;50.934;11.590;2024-01-06T01:37:59;98964.78;;;1.56;94.57
80945;BME280;70400;50.934;11.590;2024-01-06T01:38:50;98967.06;;;1.47;94.52
80945;BME280;70400;50.934;11.590;2024-01-06T01:39:41;98966.16;;;1.48;94.71
80945;BME280;70400;50.934;11.590;2024-01-06T01:40:32;98965.44;;;1.46;94.56
80945;BME280;70400;50.934;11.590;2024-01-06T01:41:23;98972.72;;;1.41;94.79
80945;BME280;70400;50.934;11.590;2024-01-06T01:42:13;98972.81;;;1.40;95.10
80945;BME280;70400;50.934;11.590;2024-01-06T01:43:04;98977.66;;;1.33;95.21
80945;BME280;70400;50.934;11.590;2024-01-06T01:43:55;98969.94;;;1.32;95.16
80945;BME280;70400;50.934;11.590;2024-01-06T01:44:49;98981.88;;;1.34;95.49
80945;BME280;70400;50.934;11.590;2024-01-06T01:45:40;98980.84;;;1.37;95.44
80945;BME280;70400;50.934;11.590;2024-01-06T01:46:32;98978.56;;;1.32;95.55
80945;BME280;70400;50.934;11.590;2024-01-06T01:47:23;98980.25;;;1.33;95.72
80945;BME280;70400;50.934;11.590;2024-01-06T01:48:14;98982.34;;;1.28;95.37
80945;BME280;70400;50.934;11.590;2024-01-06T01:49:06;98984.44;;;1.23;95.31
80945;BME280;70400;50.934;11.590;2024-01-06T01:49:56;98990.94;;;1.28;95.93
80945;BME280;70400;50.934;11.590;2024-01-06T01:50:48;98991.00;;;1.40;95.62
80945;BME280;70400;50.934;11.590;2024-01-06T01:51:39;98989.81;;;1.33;95.81
80945;BME280;70400;50.934;11.590;2024-01-06T01:52:30;98984.16;;;1.39;95.52
80945;BME280;70400;50.934;11.590;2024-01-06T01:53:23;98989.97;;;1.42;95.59
80945;BME280;70400;50.934;11.590;2024-01-06T01:54:15;98988.72;;;1.48;95.18
80945;BME280;70400;50.934;11.590;2024-01-06T01:55:07;98989.31;;;1.51;95.17
80945;BME280;70400;50.934;11.590;2024-01-06T01:55:57;98990.84;;;1.54;95.10
80945;BME280;70400;50.934;11.590;2024-01-06T01:56:48;98993.78;;;1.49;94.97
80945;BME280;70400;50.934;11.590;2024-01-06T01:57:40;98992.13;;;1.48;94.83
80945;BME280;70400;50.934;11.590;2024-01-06T01:58:31;98991.63;;;1.43;94.85
80945;BME280;70400;50.934;11.590;2024-01-06T01:59:22;98993.09;;;1.35;95.51
80945;BME280;70400;50.934;11.590;2024-01-06T02:00:13;98999.34;;;1.32;95.46
80945;BME280;70400;50.934;11.590;2024-01-06T02:01:04;98997.59;;;1.33;95.62
80945;BME280;70400;50.934;11.590;2024-01-06T02:01:55;98992.59;;;1.29;95.87
80945;BME280;70400;50.934;11.590;2024-01-06T02:02:47;98992.94;;;1.25;96.37
80945;BME280;70400;50.934;11.590;2024-01-06T02:03:38;98992.53;;;1.18;96.60
80945;BME280;70400;50.934;11.590;2024-01-06T02:04:31;98997.75;;;1.18;96.65
80945;BME280;70400;50.934;11.590;2024-01-06T02:05:22;98992.03;;;1.13;96.69
80945;BME280;70400;50.934;11.590;2024-01-06T02:06:13;98995.59;;;1.12;96.70
80945;BME280;70400;50.934;11.590;2024-01-06T02:07:04;98994.03;;;1.10;96.82
80945;BME280;70400;50.934;11.590;2024-01-06T02:07:55;98994.63;;;1.13;97.21
80945;BME280;70400;50.934;11.590;2024-01-06T02:08:49;98997.69;;;1.07;97.29
80945;BME280;70400;50.934;11.590;2024-01-06T02:09:40;99000.38;;;1.05;96.96
80945;BME280;70400;50.934;11.590;2024-01-06T02:10:31;98998.38;;;1.09;96.93
80945;BME280;70400;50.934;11.590;2024-01-06T02:11:22;99001.09;;;1.07;97.03
80945;BME280;70400;50.934;11.590;2024-01-06T02:12:13;98998.28;;;1.11;96.97
80945;BME280;70400;50.934;11.590;2024-01-06T02:13:10;98993.81;;;1.13;97.14
80945;BME280;70400;50.934;11.590;2024-01-06T02:14:01;98999.72;;;1.15;96.93
80945;BME280;70400;50.934;11.590;2024-01-06T02:14:52;98996.28;;;1.14;96.75
80945;BME280;70400;50.934;11.590;2024-01-06T02:15:43;99000.47;;;1.04;96.97
80945;BME280;70400;50.934;11.590;2024-01-06T02:16:37;99000.38;;;1.05;97.40
80945;BME280;70400;50.934;11.590;2024-01-06T02:17:27;99007.66;;;1.00;97.21
80945;BME280;70400;50.934;11.590;2024-01-06T02:18:18;99001.50;;;1.01;97.38
80945;BME280;70400;50.934;11.590;2024-01-06T02:19:10;99004.00;;;1.03;97.63
80945;BME280;70400;50.934;11.590;2024-01-06T02:20:02;99000.47;;;1.04;97.79
80945;BME280;70400;50.934;11.590;2024-01-06T02:20:56;99004.00;;;1.03;97.79
80945;BME280;70400;50.934;11.590;2024-01-06T02:21:50;98998.38;;;1.09;97.71
80945;BME280;70400;50.934;11.590;2024-01-06T02:22:41;99002.75;;;1.08;97.66
80945;BME280;70400;50.934;11.590;2024-01-06T02:23:34;98999.41;;;1.06;98.10
80945;BME280;70400;50.934;11.590;2024-01-06T02:24:25;99006.56;;;1.16;97.81
80945;BME280;70400;50.934;11.590;2024-01-06T02:25:17;99005.97;;;1.12;97.92
80945;BME280;70400;50.934;11.590;2024-01-06T02:26:10;99007.53;;;1.15;98.00
80945;BME280;70400;50.934;11.590;2024-01-06T02:27:01;99005.13;;;1.12;98.15
80945;BME280;70400;50.934;11.590;2024-01-06T02:27:52;99010.72;;;1.18;97.74
80945;BME280;70400;50.934;11.590;2024-01-06T02:28:42;99015.31;;;1.15;97.41
80945;BME280;70400;50.934;11.590;2024-01-06T02:29:38;99012.59;;;1.16;97.57
80945;BME280;70400;50.934;11.590;2024-01-06T02:30:29;99013.63;;;1.14;97.58
80945;BME280;70400;50.934;11.590;2024-01-06T02:31:20;99011.53;;;1.19;97.36
80945;BME280;70400;50.934;11.590;2024-01-06T02:32:11;99015.41;;;1.13;97.53
80945;BME280;70400;50.934;11.590;2024-01-06T02:33:02;99013.84;;;1.11;97.58
80945;BME280;70400;50.934;11.590;2024-01-06T02:33:53;99012.91;;;1.12;97.40
80945;BME280;70400;50.934;11.590;2024-01-06T02:34:45;99013.34;;;1.05;97.72
80945;BME280;70400;50.934;11.590;2024-01-06T02:35:36;99014.69;;;0.98;97.62
80945;BME280;70400;50.934;11.590;2024-01-06T02:36:28;99003.41;;;0.99;98.34
80945;BME280;70400;50.934;11.590;2024-01-06T02:37:19;99008.69;;;0.98;97.97
80945;BME280;70400;50.934;11.590;2024-01-06T02:38:12;99011.06;;;1.01;98.39
80945;BME280;70400;50.934;11.590;2024-01-06T02:39:02;99009.28;;;1.01;98.45
80945;BME280;70400;50.934;11.590;2024-01-06T02:39:53;99005.34;;;1.08;98.01
80945;BME280;70400;50.934;11.590;2024-01-06T02:40:44;99004.84;;;1.03;98.54
80945;BME280;70400;50.934;11.590;2024-01-06T02:41:35;99009.50;;;0.98;98.26
80945;BME280;70400;50.934;11.590;2024-01-06T02:42:26;99000.28;;;0.94;98.35
80945;BME280;70400;50.934;11.590;2024-01-06T02:43:17;99011.28;;;0.98;98.39
80945;BME280;70400;50.934;11.590;2024-01-06T02:44:09;99012.63;;;1.03;98.35
80945;BME280;70400;50.934;11.590;2024-01-06T02:45:03;99011.88;;;1.01;98.32
80945;BME280;70400;50.934;11.590;2024-01-06T02:45:54;99015.97;;;0.93;98.06
80945;BME280;70400;50.934;11.590;2024-01-06T02:46:45;99007.22;;;0.94;98.41
80945;BME280;70400;50.934;11.590;2024-01-06T02:47:36;99016.38;;;0.99;98.71
80945;BME280;70400;50.934;11.590;2024-01-06T02:48:28;99007.44;;;1.03;98.60
80945;BME280;70400;50.934;11.590;2024-01-06T02:49:21;99009.41;;;1.00;98.60
80945;BME280;70400;50.934;11.590;2024-01-06T02:50:12;99008.59;;;0.99;98.56
80945;BME280;70400;50.934;11.590;2024-01-06T02:51:03;99011.47;;;1.07;98.28
80945;BME280;70400;50.934;11.590;2024-01-06T02:51:54;99012.53;;;1.05;98.17
80945;BME280;70400;50.934;11.590;2024-01-06T02:52:47;99009.09;;;1.04;97.96
80945;BME280;70400;50.934;11.590;2024-01-06T02:53:38;99010.84;;;1.04;98.47
80945;BME280;70400;50.934;11.590;2024-01-06T02:54:29;99013.44;;;1.04;98.05
80945;BME280;70400;50.934;11.590;2024-01-06T02:55:20;99001.91;;;1.08;97.91
80945;BME280;70400;50.934;11.590;2024-01-06T02:56:11;99009.63;;;1.10;98.06
80945;BME280;70400;50.934;11.590;2024-01-06T02:57:02;99015.22;;;1.03;97.50
80945;BME280;70400;50.934;11.590;2024-01-06T02:57:53;99008.88;;;1.07;97.64
80945;BME280;70400;50.934;11.590;2024-01-06T02:58:44;99006.50;;;1.04;97.58
80945;BME280;70400;50.934;11.590;2024-01-06T02:59:35;99014.38;;;1.03;97.73
80945;BME280;70400;50.934;11.590;2024-01-06T03:00:26;99014.47;;;1.01;97.88
80945;BME280;70400;50.934;11.590;2024-01-06T03:01:17;99019.69;;;1.01;97.69
80945;BME280;70400;50.934;11.590;2024-01-06T03:02:08;99020.00;;;1.10;97.84
80945;BME280;70400;50.934;11.590;2024-01-06T03:02:59;99017.06;;;1.14;97.70
80945;BME280;70400;50.934;11.590;2024-01-06T03:03:50;99010.13;;;1.15;97.02
80945;BME280;70400;50.934;11.590;2024-01-06T03:04:42;99018.44;;;1.07;97.24
80945;BME280;70400;50.934;11.590;2024-01-06T03:05:32;99016.16;;;1.02;97.52
80945;BME280;70400;50.934;11.590;2024-01-06T03:06:23;99024.34;;;1.09;97.12
80945;BME280;70400;50.934;11.590;2024-01-06T03:07:14;99020.91;;;1.08;97.28
80945;BME280;70400;50.934;11.590;2024-01-06T03:08:05;99020.00;;;1.10;97.33
80945;BME280;70400;50.934;11.590;2024-01-06T03:08:56;99020.00;;;1.10;97.20
80945;BME280;70400;50.934;11.590;2024-01-06T03:09:47;99023.72;;;1.05;97.15
80945;BME280;70400;50.934;11.590;2024-01-06T03:10:38;99013.28;;;0.94;97.22
80945;BME280;70400;50.934;11.590;2024-01-06T03:11:29;99021.97;;;0.93;97.55
80945;BME280;70400;50.934;11.590;2024-01-06T03:12:20;99017.09;;;0.89;97.37
80945;BME280;70400;50.934;11.590;2024-01-06T03:13:11;99015.22;;;0.91;97.82
80945;BME280;70400;50.934;11.590;2024-01-06T03:14:01;99026.88;;;0.85;97.90
80945;BME280;70400;50.934;11.590;2024-01-06T03:14:53;99024.38;;;0.83;97.85
80945;BME280;70400;50.934;11.590;2024-01-06T03:15:44;99022.00;;;0.80;97.75
80945;BME280;70400;50.934;11.590;2024-01-06T03:16:35;99020.44;;;0.78;97.88
80945;BME280;70400;50.934;11.590;2024-01-06T03:17:26;99025.41;;;0.81;98.02
80945;BME280;70400;50.934;11.590;2024-01-06T03:18:17;99022.31;;;0.76;97.75
80945;BME280;70400;50.934;11.590;2024-01-06T03:19:10;99025.72;;;0.76;97.85
80945;BME280;70400;50.934;11.590;2024-01-06T03:20:01;99029.69;;;0.82;98.21
80945;BME280;70400;50.934;11.590;2024-01-06T03:20:52;99031.56;;;0.80;97.84
80945;BME280;70400;50.934;11.590;2024-01-06T03:21:43;99031.94;;;0.86;97.69
80945;BME280;70400;50.934;11.590;2024-01-06T03:22:34;99039.84;;;0.85;98.32
80945;BME280;70400;50.934;11.590;2024-01-06T03:23:27;99031.75;;;0.90;97.73
80945;BME280;70400;50.934;11.590;2024-01-06T03:24:18;99035.25;;;0.89;97.76
80945;BME280;70400;50.934;11.590;2024-01-06T03:25:09;99032.88;;;0.85;97.18
80945;BME280;70400;50.934;11.590;2024-01-06T03:26:05;99033.84;;;0.84;97.62
80945;BME280;70400;50.934;11.590;2024-01-06T03:26:56;99037.78;;;0.90;97.76
80945;BME280;70400;50.934;11.590;2024-01-06T03:27:47;99030.28;;;0.85;97.70
80945;BME280;70400;50.934;11.590;2024-01-06T03:28:38;99038.81;;;0.88;97.52
80945;BME280;70400;50.934;11.590;2024-01-06T03:29:28;99039.53;;;0.90;97.58
80945;BME280;70400;50.934;11.590;2024-01-06T03:30:19;99032.88;;;0.85;97.17
80945;BME280;70400;50.934;11.590;2024-01-06T03:31:10;99029.34;;;0.86;97.14
80945;BME280;70400;50.934;11.590;2024-01-06T03:32:01;99036.13;;;0.89;97.23
80945;BME280;70400;50.934;11.590;2024-01-06T03:32:52;99032.50;;;0.92;97.05
80945;BME280;70400;50.934;11.590;2024-01-06T03:33:43;99030.59;;;0.94;96.82
80945;BME280;70400;50.934;11.590;2024-01-06T03:34:35;99034.13;;;0.93;96.65
80945;BME280;70400;50.934;11.590;2024-01-06T03:35:25;99030.59;;;0.94;97.08
80945;BME280;70400;50.934;11.590;2024-01-06T03:36:16;99031.84;;;0.88;97.35
80945;BME280;70400;50.934;11.590;2024-01-06T03:37:08;99028.34;;;0.89;97.37
80945;BME280;70400;50.934;11.590;2024-01-06T03:37:58;99029.75;;;0.93;97.05
80945;BME280;70400;50.934;11.590;2024-01-06T03:38:49;99031.63;;;0.91;97.36
80945;BME280;70400;50.934;11.590;2024-01-06T03:39:40;99033.31;;;0.92;97.31
80945;BME280;70400;50.934;11.590;2024-01-06T03:40:31;99036.63;;;0.94;97.26
80945;BME280;70400;50.934;11.590;2024-01-06T03:41:22;99026.94;;;0.96;97.13
80945;BME280;70400;50.934;11.590;2024-01-06T03:42:13;99034.97;;;0.93;97.32
80945;BME280;70400;50.934;11.590;2024-01-06T03:43:03;99036.50;;;0.96;96.96
80945;BME280;70400;50.934;11.590;2024-01-06T03:43:54;99031.75;;;0.90;96.95
80945;BME280;70400;50.934;11.590;2024-01-06T03:44:45;99042.22;;;0.88;96.96
80945;BME280;70400;50.934;11.590;2024-01-06T03:45:36;99042.97;;;0.90;97.02
80945;BME280;70400;50.934;11.590;2024-01-06T03:46:28;99034.34;;;0.90;97.37
80945;BME280;70400;50.934;11.590;2024-01-06T03:47:18;99039.22;;;0.94;97.16
80945;BME280;70400;50.934;11.590;2024-01-06T03:48:09;99044.19;;;0.97;96.98
80945;BME280;70400;50.934;11.590;2024-01-06T03:49:00;99036.19;;;1.00;97.33
80945;BME280;70400;50.934;11.590;2024-01-06T03:49:51;99038.78;;;1.00;96.82
80945;BME280;70400;50.934;11.590;2024-01-06T03:50:42;99034.88;;;0.95;97.20
80945;BME280;70400;50.934;11.590;2024-01-06T03:51:33;99038.50;;;0.92;96.68
80945;BME280;70400;50.934;11.590;2024-01-06T03:52:24;99034.97;;;0.93;96.97
80945;BME280;70400;50.934;11.590;2024-01-06T03:53:15;99038.59;;;0.91;96.86
80945;BME280;70400;50.934;11.590;2024-01-06T03:54:06;99041.50;;;0.86;96.93
80945;BME280;70400;50.934;11.590;2024-01-06T03:54:57;99042.53;;;0.83;97.07
80945;BME280;70400;50.934;11.590;2024-01-06T03:55:48;99039.94;;;0.83;97.15
80945;BME280;70400;50.934;11.590;2024-01-06T03:56:38;99043.28;;;0.85;97.29
80945;BME280;70400;50.934;11.590;2024-01-06T03:57:29;99042.53;;;0.83;97.37
80945;BME280;70400;50.934;11.590;2024-01-06T03:58:20;99041.41;;;0.88;96.99
80945;BME280;70400;50.934;11.590;2024-01-06T03:59:11;99046.69;;;0.86;96.86
80945;BME280;70400;50.934;11.590;2024-01-06T04:00:02;99042.66;;;0.82;96.99
80945;BME280;70400;50.934;11.590;2024-01-06T04:00:53;99044.41;;;0.81;97.05
80945;BME280;70400;50.934;11.590;2024-01-06T04:01:44;99044.53;;;0.80;97.01
80945;BME280;70400;50.934;11.590;2024-01-06T04:02:35;99053.34;;;0.77;97.08
80945;BME280;70400;50.934;11.590;2024-01-06T04:03:26;99049.28;;;0.86;97.44
80945;BME280;70400;50.934;11.590;2024-01-06T04:04:17;99054.16;;;0.78;97.05
80945;BME280;70400;50.934;11.590;2024-01-06T04:05:08;99049.59;;;0.81;96.95
80945;BME280;70400;50.934;11.590;2024-01-06T04:05:59;99054.59;;;0.84;97.17
80945;BME280;70400;50.934;11.590;2024-01-06T04:06:50;99052.41;;;0.78;96.73
80945;BME280;70400;50.934;11.590;2024-01-06T04:07:41;99050.31;;;0.71;96.85
80945;BME280;70400;50.934;11.590;2024-01-06T04:08:32;99056.25;;;0.73;96.92
80945;BME280;70400;50.934;11.590;2024-01-06T04:09:25;99054.91;;;0.80;97.14
80945;BME280;70400;50.934;11.590;2024-01-06T04:10:16;99047.84;;;0.82;96.94
80945;BME280;70400;50.934;11.590;2024-01-06T04:11:07;99053.88;;;0.82;96.91
80945;BME280;70400;50.934;11.590;2024-01-06T04:11:58;99057.06;;;0.86;96.52
80945;BME280;70400;50.934;11.590;2024-01-06T04:12:48;99056.34;;;0.84;96.64
80945;BME280;70400;50.934;11.590;2024-01-06T04:13:39;99057.91;;;0.86;96.53
80945;BME280;70400;50.934;11.590;2024-01-06T04:14:30;99057.19;;;0.84;96.36
80945;BME280;70400;50.934;11.590;2024-01-06T04:15:24;99054.69;;;0.83;96.15
80945;BME280;70400;50.934;11.590;2024-01-06T04:16:14;99044.75;;;0.77;96.60
80945;BME280;70400;50.934;11.590;2024-01-06T04:17:05;99048.97;;;0.78;96.58
80945;BME280;70400;50.934;11.590;2024-01-06T04:17:56;99040.38;;;0.77;96.84
80945;BME280;70400;50.934;11.590;2024-01-06T04:18:47;99040.59;;;0.74;96.73
80945;BME280;70400;50.934;11.590;2024-01-06T04:19:38;99046.38;;;0.78;96.80
80945;BME280;70400;50.934;11.590;2024-01-06T04:20:29;99043.88;;;0.76;96.92
80945;BME280;70400;50.934;11.590;2024-01-06T04:21:20;99049.50;;;0.83;96.87
80945;BME280;70400;50.934;11.590;2024-01-06T04:22:13;99043.69;;;0.79;96.52
80945;BME280;70400;50.934;11.590;2024-01-06T04:23:04;99047.94;;;0.80;96.68
80945;BME280;70400;50.934;11.590;2024-01-06T04:23:55;99044.75;;;0.77;96.41
80945;BME280;70400;50.934;11.590;2024-01-06T04:24:46;99044.41;;;0.69;96.78
80945;BME280;70400;50.934;11.590;2024-01-06T04:25:37;99049.81;;;0.65;96.53
80945;BME280;70400;50.934;11.590;2024-01-06T04:26:28;99047.94;;;0.68;96.31
80945;BME280;70400;50.934;11.590;2024-01-06T04:27:19;99050.84;;;0.63;96.77
80945;BME280;70400;50.934;11.590;2024-01-06T04:28:10;99052.00;;;0.72;96.37
80945;BME280;70400;50.934;11.590;2024-01-06T04:29:01;99053.66;;;0.73;96.53
80945;BME280;70400;50.934;11.590;2024-01-06T04:29:52;99054.59;;;0.72;96.37
80945;BME280;70400;50.934;11.590;2024-01-06T04:30:44;99056.34;;;0.71;96.73
80945;BME280;70400;50.934;11.590;2024-01-06T04:31:34;99056.34;;;0.71;96.85